TimeCET,TemperatureF,Dew PointF,Humidity,Sea Level PressureIn,VisibilityMPH,Wind Direction,Wind SpeedMPH,Gust SpeedMPH,PrecipitationIn,Events,Conditions,WindDirDegrees,DateUTC
12:55 AM,14.0,5.0,67,29.65,-9999.0,North,8.1,21.9,N/A,,Clear,10,2013-01-25 23:55:00
1:55 AM,12.2,3.2,67,29.65,-9999.0,North,9.2,21.9,N/A,,Clear,10,2013-01-26 00:55:00
2:55 AM,12.2,5.0,73,29.65,-9999.0,North,8.1,20.7,N/A,,Clear,10,2013-01-26 01:55:00
3:55 AM,12.2,5.0,73,29.62,-9999.0,North,6.9,19.6,N/A,,Clear,10,2013-01-26 02:55:00
4:55 AM,10.4,3.2,73,29.62,-9999.0,North,8.1,-,N/A,,Clear,10,2013-01-26 03:55:00
5:55 AM,10.4,3.2,73,29.62,-9999.0,North,6.9,-,N/A,,Clear,10,2013-01-26 04:55:00
6:55 AM,10.4,3.2,73,29.59,-9999.0,NNE,9.2,-,N/A,,Clear,20,2013-01-26 05:55:00
7:55 AM,10.4,1.4,67,29.59,-9999.0,North,8.1,-,N/A,,Clear,350,2013-01-26 06:55:00
8:55 AM,10.4,1.4,67,29.62,-9999.0,NNE,5.8,-,N/A,,Clear,20,2013-01-26 07:55:00
9:55 AM,12.2,3.2,67,29.62,-9999.0,North,6.9,-,N/A,,Clear,10,2013-01-26 08:55:00
10:55 AM,17.6,5.0,58,29.62,-9999.0,North,9.2,20.7,N/A,,Clear,360,2013-01-26 09:55:00
11:55 AM,23.0,5.0,46,29.65,-9999.0,North,8.1,20.7,N/A,,Clear,360,2013-01-26 10:55:00
12:55 PM,26.6,3.2,37,29.65,-9999.0,North,9.2,-,N/A,,Clear,350,2013-01-26 11:55:00
1:55 PM,30.2,1.4,29,29.65,-9999.0,NNE,8.1,-,N/A,,Clear,20,2013-01-26 12:55:00
2:55 PM,32.0,1.4,27,29.65,-9999.0,NNW,6.9,-,N/A,,Clear,340,2013-01-26 13:55:00
3:55 PM,32.0,-2.2,23,29.65,-9999.0,North,6.9,-,N/A,,Clear,350,2013-01-26 14:55:00
4:55 PM,28.4,-2.2,27,29.68,-9999.0,North,6.9,-,N/A,,Clear,10,2013-01-26 15:55:00
5:55 PM,24.8,-0.4,34,29.71,-9999.0,North,8.1,-,N/A,,Clear,10,2013-01-26 16:55:00
6:55 PM,24.8,-0.4,34,29.74,-9999.0,North,6.9,-,N/A,,Clear,350,2013-01-26 17:55:00
7:55 PM,23.0,-0.4,36,29.77,-9999.0,North,6.9,-,N/A,,Clear,10,2013-01-26 18:55:00
8:55 PM,23.0,-0.4,36,29.77,-9999.0,North,6.9,-,N/A,,Clear,360,2013-01-26 19:55:00
9:55 PM,21.2,-0.4,39,29.80,-9999.0,North,5.8,-,N/A,,Clear,10,2013-01-26 20:55:00
10:55 PM,21.2,-0.4,39,29.80,-9999.0,North,6.9,-,N/A,,Clear,350,2013-01-26 21:55:00
11:55 PM,21.2,-0.4,39,29.80,-9999.0,North,6.9,-,N/A,,Clear,10,2013-01-26 22:55:00